Latest Weather Observations for Whoop Whoop*

IDT60801

Issued at 2:32 pm EDT Sunday 26 February 2017 (issued every 30 minutes, with the page automatically refreshed every 10 minutes)

About weather observations | Map of weather stations | Latest weather observations for ANT | Other Formats
Station Details ID: 300055 Name: DAVIS (WHOOP WHOOP) Lat: -68.47 Lon: 78.87 Height: 545.0 m
Data from the previous 72 hours. | See also: Recent months for locations in Antarctica
Date/Time
EDT
Temp
°C
App
Temp
°C
Dew
Point
°C
Rel
Hum
%
Delta-T
°C
Wind Press
QNH
hPa
Press
MSL
hPa
Rain since
9am
mm
Dir  Spd
km/h
Gust
km/h
Spd
kts
Gust
kts
26/01:30pm -11.9 -21.0 -15.9 72 - E 30 33 16 18 975.3 - -
26/01:00pm -12.1 -21.2 -15.9 73 - E 30 33 16 18 975.5 - -
26/12:30pm -12.5 -22.0 -16.3 73 - E 32 35 17 19 975.6 - -
26/12:00pm -13.1 -23.2 -17.1 72 - E 35 39 19 21 975.6 - -
26/11:30am -13.5 -24.0 -17.4 72 - E 37 41 20 22 975.7 - -
26/11:00am -13.7 -24.2 -17.8 71 - E 37 41 20 22 976.0 - -
26/10:30am -13.5 -23.2 -17.3 73 - E 33 35 18 19 976.0 - -
26/10:00am -13.4 -24.3 -17.3 72 - ENE 39 43 21 23 975.8 - -
26/09:30am -13.0 -23.9 -17.0 72 - E 39 43 21 23 976.0 - -
26/09:00am -12.8 -23.7 -16.6 73 - E 39 43 21 23 976.1 - -
26/08:30am -12.6 -23.9 -16.9 70 - E 41 44 22 24 976.2 - -
26/08:00am -11.9 -22.4 -16.6 68 - E 37 43 20 23 976.3 - -
26/07:30am -11.7 -21.2 -16.2 69 - E 32 35 17 19 976.6 - -
26/07:00am -11.5 -22.3 -16.0 69 - E 39 46 21 25 976.5 - -
26/06:30am -12.0 -23.8 -16.5 69 - E 44 50 24 27 976.4 - -
26/06:00am -11.8 -24.0 -16.3 69 - E 46 52 25 28 976.4 - -
26/05:30am -11.1 -23.2 -15.5 70 - E 46 52 25 28 976.6 - -
26/05:00am -10.9 -23.4 -15.3 70 - E 48 54 26 29 976.7 - -
26/04:30am -11.0 -23.5 -15.4 70 - E 48 54 26 29 976.9 - -
26/04:00am -10.6 -23.5 -15.0 70 - E 50 56 27 30 977.1 - -
26/03:30am -10.3 -23.5 -14.7 70 - E 52 61 28 33 977.3 - -
26/03:00am -10.1 -22.9 -14.5 70 - E 50 57 27 31 977.6 - -
26/02:30am -9.8 -22.6 -14.2 70 - E 50 56 27 30 978.0 - -
26/02:00am -9.4 -21.8 -13.8 70 - E 48 54 26 29 978.2 - -
26/01:30am -9.0 -21.4 -13.1 72 - E 48 54 26 29 978.3 - -
26/01:00am -8.4 -20.4 -12.5 72 - E 46 52 25 28 978.5 - -
26/12:30am -8.0 -19.0 -11.8 74 - E 41 48 22 26 978.7 - -
26/12:00am -7.7 -19.0 -11.3 75 - E 43 48 23 26 978.6 - -
 
Date/Time
EDT
Temp
°C
App
Temp
°C
Dew
Point
°C
Rel
Hum
%
Delta-T
°C
Wind Press
QNH
hPa
Press
MSL
hPa
Rain since
9am
mm
Dir  Spd
km/h
Gust
km/h
Spd
kts
Gust
kts
25/11:30pm -7.2 -18.7 -10.7 76 - E 44 50 24 27 978.7 - -
25/11:00pm -6.9 -17.8 -10.6 75 - E 41 46 22 25 979.0 - -
25/10:30pm -6.6 -16.3 -10.3 75 - E 35 41 19 22 979.1 - -
25/10:00pm -6.2 -15.9 -9.7 76 - E 35 43 19 23 979.1 - -
25/09:30pm -6.2 -15.9 -9.6 77 - E 35 46 19 25 979.0 - -
25/09:00pm -6.1 -17.3 -9.3 78 - E 43 52 23 28 978.9 - -
25/08:30pm -6.0 -17.1 -9.0 79 - E 43 52 23 28 978.6 - -
25/08:00pm -5.9 -17.1 -9.1 78 - E 43 56 23 30 978.6 - -
25/07:30pm -6.0 -19.6 -9.0 79 - ENE 56 69 30 37 978.1 - -
25/07:00pm -6.1 -20.7 -9.0 80 - ENE 61 76 33 41 978.0 - -
25/06:30pm -6.0 -19.6 -8.9 80 - E 56 65 30 35 978.3 - -
25/06:00pm -6.1 -19.7 -9.0 80 - ENE 56 67 30 36 978.6 - -
25/05:30pm -6.1 -19.9 -9.1 79 - ENE 57 69 31 37 978.6 - -
25/05:00pm -6.4 -20.0 -9.3 80 - ENE 56 67 30 36 978.6 - -
25/04:30pm -6.6 -20.3 -9.6 79 - ENE 56 65 30 35 978.5 - -
25/04:00pm -6.6 -20.3 -9.5 80 - ENE 56 67 30 36 978.7 - -
25/03:30pm -6.8 -20.6 -9.5 81 - ENE 57 67 31 36 978.5 - -
25/03:00pm -7.1 -21.4 -9.9 80 - ENE 59 69 32 37 978.6 - -
25/02:30pm -7.2 -20.9 -9.9 81 - ENE 56 70 30 38 978.7 - -
25/02:00pm -7.3 -21.2 -9.8 82 - ENE 57 67 31 36 978.5 - -
25/01:30pm -7.5 -20.8 -9.9 83 - ENE 54 65 29 35 978.6 - -
25/01:00pm -7.3 -21.2 -9.7 83 - ENE 57 69 31 37 978.5 - -
25/12:30pm -7.3 -21.2 -9.7 83 - ENE 57 69 31 37 978.2 - -
25/12:00pm -7.8 -21.7 -9.6 87 - ENE 57 74 31 40 977.8 - -
25/11:30am -8.2 -22.1 -9.8 88 - ENE 57 67 31 36 977.9 - -
25/11:00am -8.0 -21.3 -9.5 89 - ENE 54 63 29 34 978.1 - -
25/10:49am -8.3 -18.7 -9.8 89 - ENE 39 57 21 31 978.3 - -
25/10:30am -8.6 -20.4 -10.1 89 - E 46 57 25 31 979.0 - -
25/10:00am -8.8 -19.7 -10.9 85 - E 41 48 22 26 979.2 - -
25/09:30am -9.9 -19.4 -12.7 80 - E 33 43 18 23 979.5 - -
25/09:00am -10.4 -20.7 -14.1 74 - E 37 43 20 23 979.7 - -
25/08:30am -10.5 -20.9 -14.2 74 - E 37 41 20 22 979.7 - -
25/08:00am -10.8 -21.2 -14.5 74 - E 37 43 20 23 979.8 - -
25/07:30am -10.5 -20.1 -13.9 76 - ENE 33 39 18 21 979.9 - -
25/07:00am -10.9 -20.9 -14.3 76 - ENE 35 43 19 23 979.9 - -
25/06:30am -11.2 -22.3 -14.6 76 - ENE 41 50 22 27 979.7 - -
25/06:00am -11.6 -22.7 -14.6 78 - ENE 41 54 22 29 979.7 - -
25/05:30am -11.9 -23.4 -15.1 77 - ENE 43 54 23 29 979.8 - -
25/05:00am -12.0 -24.5 -15.2 77 - ENE 48 56 26 30 979.7 - -
25/04:39am -12.0 -25.2 -14.6 81 - ENE 52 70 28 38 979.2 - -
25/04:30am -12.7 -25.6 -15.6 79 - ENE 50 57 27 31 979.4 - -
25/04:00am -13.6 -27.3 -16.9 76 - ENE 54 65 29 35 979.7 - -
25/03:33am -13.8 -27.1 -17.1 76 - ENE 52 70 28 38 979.3 - -
25/03:30am -14.0 -27.4 -17.4 75 - ENE 52 65 28 35 979.7 - -
25/03:00am -13.7 -27.1 -17.6 72 - ENE 52 65 28 35 979.5 - -
25/02:30am -13.5 -27.8 -17.0 75 - ENE 57 76 31 41 979.0 - -
25/02:16am -13.3 -27.6 -16.5 77 - ENE 57 76 31 41 979.0 - -
25/02:00am -13.4 -27.7 -16.9 75 - ENE 57 70 31 38 979.1 - -
25/01:30am -13.0 -27.1 -16.2 77 - ENE 56 67 30 36 979.1 - -
25/01:00am -12.5 -24.3 -15.8 76 - ENE 44 52 24 28 979.1 - -
25/12:30am -11.7 -23.2 -15.1 76 - ENE 43 50 23 27 979.0 - -
25/12:00am -11.3 -23.0 -15.2 73 - ENE 44 54 24 29 978.9 - -
 
Date/Time
EDT
Temp
°C
App
Temp
°C
Dew
Point
°C
Rel
Hum
%
Delta-T
°C
Wind Press
QNH
hPa
Press
MSL
hPa
Rain since
9am
mm
Dir  Spd
km/h
Gust
km/h
Spd
kts
Gust
kts
24/11:30pm -11.2 -23.7 -15.1 73 - ENE 48 59 26 32 978.8 - -
24/11:00pm -11.5 -24.0 -15.0 75 - ENE 48 57 26 31 978.6 - -
24/10:00pm -10.9 -22.4 -15.1 71 - E 43 50 23 27 978.4 - -
24/09:30pm -10.8 -22.3 -14.7 73 - E 43 50 23 27 978.2 - -
24/09:00pm -10.8 -21.9 -14.7 73 - E 41 52 22 28 978.0 - -
24/08:30pm -10.7 -21.4 -14.4 74 - E 39 46 21 25 977.6 - -
24/08:00pm -11.1 -23.2 -14.6 75 - ENE 46 54 25 29 977.4 - -
24/07:30pm -11.1 -22.8 -14.6 75 - ENE 44 50 24 27 977.0 - -
24/07:00pm -11.2 -23.7 -14.7 75 - ENE 48 54 26 29 976.6 - -
24/06:30pm -11.2 -22.9 -14.7 75 - ENE 44 50 24 27 976.5 - -
24/06:00pm -11.2 -22.7 -14.6 76 - ENE 43 50 23 27 976.2 - -
24/05:30pm -11.6 -23.1 -15.0 76 - ENE 43 50 23 27 975.8 - -
24/05:00pm -11.8 -23.0 -15.2 76 - ENE 41 46 22 25 975.5 - -
24/04:30pm -11.5 -22.7 -15.0 75 - ENE 41 46 22 25 974.9 - -
24/04:00pm -11.7 -22.9 -15.1 76 - ENE 41 46 22 25 974.5 - -
24/03:30pm -11.8 -22.6 -15.6 73 - ENE 39 44 21 24 973.8 - -
24/03:00pm -12.2 -23.0 -15.9 74 - ENE 39 44 21 24 973.4 - -
24/02:30pm -12.4 -22.9 -16.1 74 - ENE 37 44 20 24 973.1 - -
24/02:00pm -13.1 -24.0 -16.6 75 - ENE 39 46 21 25 972.8 - -
24/01:30pm -14.1 -25.9 -17.2 77 - ENE 44 48 24 26 972.5 - -
24/01:00pm -14.4 -26.2 -17.5 77 - E 44 52 24 28 972.0 - -
24/12:30pm -14.5 -26.3 -17.5 78 - E 44 52 24 28 971.7 - -
24/12:00pm -14.6 -26.5 -17.7 77 - E 44 52 24 28 971.5 - -
24/11:30am -14.6 -26.3 -18.0 75 - E 43 48 23 26 971.1 - -
24/11:00am -14.7 -26.4 -18.1 75 - E 43 50 23 27 970.9 - -
24/10:30am -14.8 -26.5 -18.2 75 - ENE 43 50 23 27 970.6 - -
24/10:00am -14.8 -26.7 -18.4 74 - ENE 44 50 24 27 970.2 - -
24/09:30am -14.5 -26.2 -18.2 73 - ENE 43 48 23 26 969.9 - -
24/09:00am -14.5 -26.2 -18.4 72 - ENE 43 50 23 27 969.6 - -
24/08:30am -14.3 -25.6 -18.5 70 - ENE 41 48 22 26 969.4 - -
24/08:00am -14.8 -26.5 -18.7 72 - ENE 43 50 23 27 969.2 - -
24/07:30am -14.6 -26.5 -18.7 71 - ENE 44 50 24 27 969.1 - -
24/07:00am -14.8 -26.7 -18.7 72 - ENE 44 52 24 28 968.9 - -
24/06:30am -14.8 -27.1 -18.5 73 - ENE 46 54 25 29 968.7 - -
24/06:00am -14.7 -26.6 -18.8 71 - ENE 44 50 24 27 968.6 - -
24/05:30am -14.7 -27.0 -18.1 75 - ENE 46 52 25 28 968.4 - -
24/05:00am -14.5 -26.3 -17.3 79 - ENE 44 50 24 27 968.3 - -
24/04:30am -13.8 -24.3 -16.8 78 - ENE 37 43 20 23 968.2 - -
24/04:00am -13.5 -24.4 -17.4 72 - ENE 39 44 21 24 968.1 - -
24/03:30am -13.5 -24.4 -17.8 70 - ENE 39 44 21 24 968.0 - -
24/03:00am -12.5 -22.6 -17.0 69 - ENE 35 39 19 21 968.1 - -
24/02:30am -12.0 -21.1 -16.3 70 - ENE 30 32 16 17 968.4 - -
24/02:00am -12.1 -21.6 -16.9 67 - E 32 35 17 19 968.6 - -

Other Formats:

Comma delimited format used in spreadsheet applications
http://www.bom.gov.au/fwo/IDT60803/IDT60803.89570.axf

JavaScript Object Notation format (JSON) in row-major order
http://www.bom.gov.au/fwo/IDT60803/IDT60803.89570.json